KALI

Alice International Airport

Alice, Texas, USA
METAR KALI 170653Z AUTO 00000KT 10SM OVC009 09/07 A3004 RMK AO2 SLP173 T00890072
Observed Flight Rules
Dec-17 @ 06:53 UTC (an hour ago) Instrument Flight Rules
Wind Visibility Clouds
Calm 10 miles
  • Overcast at 900' AGL
Temperatures Readings
Current 9°C / 48°F
Dewpoint 7°C / 45°F
Humidity 87%
Altimeter 30.04" Hg
Pressure 1017.3 hPa
Elevation 53
METAR KALI 170653Z AUTO 00000KT 10SM OVC009 09/07 A3004 RMK AO2 SLP173 T00890072
Observed Flight Rules
Dec-17 @ 06:53 UTC
(an hour ago)
IFR
Wind Visibility
Calm 10 miles
Clouds
  • Overcast at 900' AGL
Temperature Dewpoint
9°C / 48°F 7°C / 45°F
Humidity Altimeter Pressure
87% 30.04" Hg 1017.3 hPa